createdAt,value
2019-05-15T00:01:48.769Z,83.10
2019-05-15T00:04:58.519Z,83.50
2019-05-15T00:08:09.229Z,83.80
2019-05-15T00:11:19.259Z,83.40
2019-05-15T00:14:28.821Z,84.50
2019-05-15T00:17:39.465Z,84.10
2019-05-15T00:20:49.631Z,85.40
2019-05-15T00:23:58.707Z,85.60
2019-05-15T00:27:08.152Z,85.40
2019-05-15T00:30:18.351Z,85.90
2019-05-15T00:33:28.644Z,86.90
2019-05-15T00:36:38.295Z,87.10
2019-05-15T00:39:48.570Z,87.50
2019-05-15T00:42:57.908Z,87.70
2019-05-15T00:46:18.354Z,88.90
2019-05-15T00:49:28.967Z,89.60
2019-05-15T00:52:39.053Z,90.30
2019-05-15T00:55:48.641Z,90.30
2019-05-15T00:58:58.788Z,90.10
2019-05-15T01:02:17.945Z,89.80
2019-05-15T01:05:28.030Z,89.70
2019-05-15T01:08:39.068Z,89.60
2019-05-15T01:11:48.764Z,90.00
2019-05-15T01:14:58.303Z,90.20
2019-05-15T01:18:09.063Z,90.30
2019-05-15T01:21:27.873Z,90.30
2019-05-15T01:24:38.761Z,90.50
2019-05-15T01:27:58.338Z,90.50
2019-05-15T01:31:08.805Z,90.40
2019-05-15T01:34:18.481Z,90.50
2019-05-15T01:37:28.237Z,90.60
2019-05-15T01:40:38.464Z,90.60
2019-05-15T01:43:48.906Z,90.90
2019-05-15T01:46:59.012Z,91.20
2019-05-15T01:50:09.958Z,91.20
2019-05-15T01:53:20.262Z,91.70
2019-05-15T01:56:29.415Z,91.80
2019-05-15T01:59:57.277Z,92.10
2019-05-15T02:02:59.513Z,92.40
2019-05-15T02:06:08.439Z,93.00
2019-05-15T02:09:18.566Z,93.20
2019-05-15T02:12:28.606Z,94.00
2019-05-15T02:15:39.475Z,93.70
2019-05-15T02:18:48.908Z,93.70
2019-05-15T02:21:58.071Z,93.90
2019-05-15T02:25:08.500Z,94.00
2019-05-15T02:28:28.905Z,93.80
2019-05-15T02:31:39.219Z,94.40
2019-05-15T02:34:50.027Z,94.70
2019-05-15T02:37:59.810Z,94.60
2019-05-15T02:41:09.899Z,95.50
2019-05-15T02:44:20.302Z,95.60
2019-05-15T02:47:29.332Z,95.90
2019-05-15T02:50:39.097Z,96.10
2019-05-15T02:53:58.679Z,96.50
2019-05-15T02:57:19.184Z,96.80
2019-05-15T03:00:37.881Z,97.10
2019-05-15T03:03:39.012Z,97.10
2019-05-15T03:06:49.338Z,96.80
2019-05-15T03:09:59.725Z,97.30
2019-05-15T03:13:09.699Z,96.70
2019-05-15T03:16:30.301Z,96.90
2019-05-15T03:19:39.305Z,97.20
2019-05-15T03:22:49.436Z,96.80
2019-05-15T03:26:02.974Z,95.10
2019-05-15T03:29:09.850Z,95.40
2019-05-15T03:32:32.177Z,95.50
2019-05-15T03:35:32.678Z,95.50
2019-05-15T03:38:39.787Z,95.80
2019-05-15T03:41:49.741Z,95.60
2019-05-15T03:44:59.558Z,96.00
2019-05-15T03:48:19.596Z,96.00
2019-05-15T03:51:29.124Z,96.30
2019-05-15T03:54:39.260Z,96.10
2019-05-15T03:57:49.912Z,96.20
2019-05-15T04:01:00.261Z,96.50
2019-05-15T04:04:09.583Z,96.80
2019-05-15T04:07:18.953Z,97.20
2019-05-15T04:10:28.795Z,97.40
2019-05-15T04:13:39.737Z,97.60
2019-05-15T04:16:49.651Z,97.50
2019-05-15T04:19:58.981Z,97.90
2019-05-15T04:23:10.309Z,98.00
2019-05-15T04:26:19.500Z,98.20
2019-05-15T04:29:28.997Z,97.80
2019-05-15T04:32:39.783Z,97.80
2019-05-15T04:35:49.741Z,97.90
2019-05-15T04:38:58.718Z,97.90
2019-05-15T04:42:08.237Z,98.30
2019-05-15T04:45:19.492Z,97.40
2019-05-15T04:48:29.058Z,97.20
2019-05-15T04:51:39.146Z,97.00
2019-05-15T04:54:49.327Z,97.20
2019-05-15T04:58:10.064Z,97.50
2019-05-15T05:01:19.934Z,97.20
2019-05-15T05:04:29.586Z,96.80
2019-05-15T05:07:49.153Z,96.90
2019-05-15T05:10:59.129Z,96.20
2019-05-15T05:14:08.667Z,96.20
2019-05-15T05:17:19.549Z,96.00
2019-05-15T05:20:28.797Z,95.70
2019-05-15T05:23:48.388Z,95.90
2019-05-15T05:26:58.078Z,95.80
2019-05-15T05:30:08.479Z,95.80
2019-05-15T05:33:17.912Z,95.80
2019-05-15T05:36:28.002Z,95.80
2019-05-15T05:39:36.607Z,95.30
2019-05-15T05:42:47.997Z,95.00
2019-05-15T05:45:58.220Z,95.20
2019-05-15T05:49:08.092Z,95.20
2019-05-15T05:52:27.980Z,95.40
2019-05-15T05:55:38.444Z,95.20
2019-05-15T05:58:49.303Z,94.90
2019-05-15T06:01:58.963Z,95.00
2019-05-15T06:05:08.185Z,94.70
2019-05-15T06:08:19.159Z,93.90
2019-05-15T06:11:27.839Z,94.00
2019-05-15T06:14:38.066Z,94.10
2019-05-15T06:17:48.114Z,93.80
2019-05-15T06:20:58.633Z,93.40
2019-05-15T06:24:12.925Z,93.70
2019-05-15T06:27:19.823Z,93.70
2019-05-15T06:30:31.471Z,93.70
2019-05-15T06:33:40.248Z,93.50
2019-05-15T06:36:48.850Z,93.00
2019-05-15T06:39:58.805Z,92.70
2019-05-15T06:43:19.104Z,92.60
2019-05-15T06:46:28.216Z,91.90
2019-05-15T06:49:37.832Z,91.60
2019-05-15T06:52:48.536Z,91.00
2019-05-15T06:55:58.453Z,90.20
2019-05-15T06:59:08.793Z,87.60
2019-05-15T07:02:18.875Z,86.50
2019-05-15T07:05:29.461Z,83.80
2019-05-15T07:08:49.572Z,82.60
2019-05-15T07:11:59.075Z,81.80
2019-05-15T07:15:09.026Z,79.30
2019-05-15T07:18:19.823Z,78.40
2019-05-15T07:21:28.543Z,78.10
2019-05-15T07:24:47.868Z,78.00
2019-05-15T07:27:58.098Z,76.20
2019-05-15T07:31:18.043Z,76.30
2019-05-15T07:34:28.341Z,76.70
2019-05-15T07:37:38.797Z,76.60
2019-05-15T07:40:55.479Z,74.80
2019-05-15T07:43:58.565Z,71.70
2019-05-15T07:47:08.842Z,73.00
2019-05-15T07:50:19.806Z,69.10
2019-05-15T07:53:38.873Z,67.20
2019-05-15T07:56:46.020Z,67.80
2019-05-15T07:59:58.780Z,65.80
2019-05-15T08:03:10.367Z,64.20
2019-05-15T08:06:18.126Z,62.60
2019-05-15T08:09:28.366Z,60.80
2019-05-15T08:12:39.192Z,60.00
2019-05-15T08:15:48.632Z,59.60
2019-05-15T08:19:08.547Z,60.00
2019-05-15T08:22:18.274Z,60.70
2019-05-15T08:25:34.939Z,60.10
2019-05-15T08:28:48.771Z,59.80
2019-05-15T08:31:58.992Z,60.40
2019-05-15T08:35:08.765Z,60.10
2019-05-15T08:38:18.194Z,57.80
2019-05-15T08:41:29.435Z,57.10
2019-05-15T08:44:38.683Z,57.80
2019-05-15T08:47:58.589Z,57.70
2019-05-15T08:51:08.809Z,57.70
2019-05-15T08:54:18.336Z,57.70
2019-05-15T08:57:38.468Z,56.60
2019-05-15T09:00:51.810Z,56.40
2019-05-15T09:03:58.245Z,56.20
2019-05-15T09:07:09.149Z,57.20
2019-05-15T09:10:18.439Z,56.70
2019-05-15T09:13:29.046Z,56.80
2019-05-15T09:16:38.704Z,54.40
2019-05-15T09:19:58.832Z,54.00
2019-05-15T09:23:08.950Z,54.20
2019-05-15T09:26:19.201Z,55.10
2019-05-15T09:29:28.517Z,53.90
2019-05-15T09:32:39.253Z,54.70
2019-05-15T09:35:49.015Z,54.30
2019-05-15T09:38:59.066Z,54.50
2019-05-15T09:42:18.129Z,55.30
2019-05-15T09:45:28.606Z,54.10
2019-05-15T09:48:51.602Z,53.30
2019-05-15T09:51:58.579Z,53.90
2019-05-15T09:55:08.864Z,54.80
2019-05-15T09:58:30.045Z,56.10
2019-05-15T10:01:39.464Z,55.30
2019-05-15T10:05:05.170Z,53.90
2019-05-15T10:07:58.749Z,53.30
2019-05-15T10:11:09.168Z,54.00
2019-05-15T10:14:19.523Z,54.30
2019-05-15T10:17:29.091Z,54.70
2019-05-15T10:20:37.858Z,53.90
2019-05-15T10:23:58.978Z,53.90
2019-05-15T10:27:08.813Z,53.80
2019-05-15T10:30:18.959Z,53.30
2019-05-15T10:33:29.582Z,52.90
2019-05-15T10:36:38.746Z,53.70
2019-05-15T10:39:58.401Z,53.10
2019-05-15T10:43:09.271Z,53.50
2019-05-15T10:46:18.989Z,53.50
2019-05-15T10:49:28.308Z,53.90
2019-05-15T10:52:38.237Z,54.00
2019-05-15T10:55:49.575Z,54.30
2019-05-15T10:58:58.937Z,55.10
2019-05-15T11:02:08.571Z,55.10
2019-05-15T11:05:18.083Z,55.50
2019-05-15T11:08:40.164Z,55.50
2019-05-15T11:11:48.662Z,56.00
2019-05-15T11:14:57.583Z,55.40
2019-05-15T11:18:09.095Z,55.40
2019-05-15T11:21:18.983Z,56.00
2019-05-15T11:24:28.249Z,56.30
2019-05-15T11:27:39.089Z,55.30
2019-05-15T11:30:49.001Z,56.10
2019-05-15T11:33:59.407Z,55.40
2019-05-15T11:37:08.108Z,51.40
2019-05-15T11:40:18.853Z,51.70
2019-05-15T11:43:29.176Z,50.70
2019-05-15T11:46:39.156Z,50.80
2019-05-15T11:49:48.048Z,47.20
2019-05-15T11:52:58.592Z,46.30
2019-05-15T11:56:18.863Z,47.70
2019-05-15T11:59:29.812Z,47.80
2019-05-15T12:02:38.398Z,48.40
2019-05-15T12:05:47.279Z,47.00
2019-05-15T12:08:58.761Z,46.70
2019-05-15T12:12:08.695Z,47.30
2019-05-15T12:15:27.993Z,47.50
2019-05-15T12:18:38.878Z,48.20
2019-05-15T12:21:48.866Z,48.70
2019-05-15T12:25:00.137Z,49.10
2019-05-15T12:28:09.433Z,48.40
2019-05-15T12:31:17.769Z,48.10
2019-05-15T12:34:28.802Z,47.70
2019-05-15T12:37:46.841Z,47.50
2019-05-15T12:59:58.625Z,43.30
2019-05-15T13:03:09.051Z,44.50
2019-05-15T13:06:28.683Z,46.70
2019-05-15T13:09:38.151Z,48.10
2019-05-15T13:12:59.403Z,49.30
2019-05-15T13:15:58.917Z,47.00
2019-05-15T13:19:08.567Z,45.00
2019-05-15T13:22:19.452Z,45.30
2019-05-15T13:25:28.827Z,44.10
2019-05-15T13:28:48.824Z,42.00
2019-05-15T13:31:58.474Z,44.60
2019-05-15T13:35:18.368Z,45.30
2019-05-15T13:38:29.029Z,44.90
2019-05-15T13:41:38.599Z,44.90
2019-05-15T13:44:58.689Z,45.90
2019-05-15T13:48:08.997Z,48.20
2019-05-15T13:51:18.224Z,50.00
2019-05-15T13:54:28.640Z,51.00
2019-05-15T13:57:38.337Z,47.80
2019-05-15T14:00:49.155Z,47.70
2019-05-15T14:03:58.929Z,45.40
2019-05-15T14:07:08.510Z,44.60
2019-05-15T14:10:18.140Z,44.90
2019-05-15T14:13:28.769Z,44.90
2019-05-15T14:16:38.310Z,44.40
2019-05-15T14:19:48.525Z,44.70
2019-05-15T14:22:58.657Z,44.50
2019-05-15T14:26:17.814Z,44.90
2019-05-15T14:29:18.995Z,45.30
2019-05-15T14:32:37.715Z,45.60
2019-05-15T14:35:38.276Z,46.60
2019-05-15T14:38:48.472Z,47.10
2019-05-15T14:41:58.314Z,47.20
2019-05-15T14:45:08.718Z,47.30
2019-05-15T14:48:19.080Z,46.90
2019-05-15T14:51:28.557Z,48.00
2019-05-15T14:54:38.413Z,48.90
2019-05-15T14:57:48.722Z,48.10
2019-05-15T15:01:03.383Z,47.10
2019-05-15T15:04:08.881Z,46.20
2019-05-15T15:07:18.881Z,46.80
2019-05-15T15:10:29.136Z,47.40
2019-05-15T15:13:39.730Z,47.20
2019-05-15T15:16:58.627Z,48.00
2019-05-15T15:20:07.579Z,47.50
2019-05-15T15:23:16.564Z,49.30
2019-05-15T15:26:35.685Z,48.30
2019-05-15T15:29:44.211Z,48.80
2019-05-15T15:32:52.809Z,49.40
2019-05-15T15:36:01.618Z,49.50
2019-05-15T15:39:15.723Z,49.20
2019-05-15T15:42:24.677Z,49.50
2019-05-15T15:45:43.554Z,49.30
2019-05-15T15:48:52.374Z,49.70
2019-05-15T15:52:01.044Z,49.10
2019-05-15T15:55:10.176Z,48.70
2019-05-15T15:58:29.524Z,48.70
2019-05-15T16:01:49.334Z,48.20
2019-05-15T16:04:58.934Z,48.20
2019-05-15T16:08:08.490Z,48.30
2019-05-15T16:11:18.728Z,48.50
2019-05-15T16:14:29.232Z,50.00
2019-05-15T16:17:38.922Z,51.60
2019-05-15T16:20:48.574Z,49.50
2019-05-15T16:23:58.300Z,50.90
2019-05-15T16:27:19.812Z,48.00
2019-05-15T16:30:28.368Z,45.30
2019-05-15T16:33:48.054Z,45.20
2019-05-15T16:36:58.447Z,44.90
2019-05-15T16:40:07.612Z,45.30
2019-05-15T16:43:17.803Z,45.40
2019-05-15T16:46:25.302Z,44.90
2019-05-15T16:49:34.017Z,44.90
2019-05-15T16:52:42.639Z,45.40
2019-05-15T16:55:51.136Z,46.00
2019-05-15T16:58:59.868Z,46.70
2019-05-15T17:02:08.972Z,46.40
2019-05-15T17:05:18.643Z,46.50
2019-05-15T17:08:37.999Z,47.40
2019-05-15T17:11:58.257Z,46.80
2019-05-15T17:15:08.548Z,45.80
2019-05-15T17:18:18.238Z,45.80
2019-05-15T17:21:37.184Z,45.50
2019-05-15T17:24:45.821Z,46.20
2019-05-15T17:27:54.201Z,46.40
2019-05-15T17:31:02.753Z,46.30
2019-05-15T17:34:11.597Z,46.20
2019-05-15T17:37:20.426Z,47.00
2019-05-15T17:40:29.347Z,47.40
2019-05-15T17:43:38.101Z,47.00
2019-05-15T17:46:48.950Z,47.10
2019-05-15T17:49:58.875Z,47.70
2019-05-15T17:53:07.330Z,47.90
2019-05-15T17:56:28.744Z,47.40
2019-05-15T17:59:37.943Z,47.80
2019-05-15T18:02:48.680Z,47.90
2019-05-15T18:05:59.061Z,48.10
2019-05-15T18:09:08.888Z,48.30
2019-05-15T18:12:18.913Z,48.20
2019-05-15T18:15:27.516Z,48.30
2019-05-15T18:18:38.300Z,47.90
2019-05-15T18:21:46.483Z,48.00
2019-05-15T18:25:08.746Z,47.60
2019-05-15T18:28:18.641Z,47.90
2019-05-15T18:31:28.629Z,47.30
2019-05-15T18:34:39.446Z,47.30
2019-05-15T18:37:48.294Z,47.30
2019-05-15T18:40:58.246Z,45.80
2019-05-15T18:44:07.299Z,43.80
2019-05-15T18:47:15.901Z,43.20
2019-05-15T18:50:24.636Z,42.10
2019-05-15T18:53:33.150Z,42.00
2019-05-15T18:56:41.924Z,41.30
2019-05-15T19:00:00.650Z,39.40
2019-05-15T19:03:19.124Z,39.70
2019-05-15T19:06:19.502Z,39.60
2019-05-15T19:09:28.362Z,39.90
2019-05-15T19:12:37.942Z,40.00
2019-05-15T19:15:48.356Z,40.20
2019-05-15T19:18:58.353Z,40.80
2019-05-15T19:22:19.257Z,41.00
2019-05-15T19:25:28.653Z,41.10
2019-05-15T19:28:39.105Z,41.70
2019-05-15T19:31:47.700Z,41.90
2019-05-15T19:35:08.009Z,42.20
2019-05-15T19:38:29.602Z,42.60
2019-05-15T19:41:48.241Z,43.20
2019-05-15T19:44:58.814Z,43.10
2019-05-15T19:48:08.960Z,43.40
2019-05-15T19:51:18.340Z,43.50
2019-05-15T19:54:28.934Z,43.80
2019-05-15T19:57:47.530Z,43.90
2019-05-15T20:00:56.060Z,44.10
2019-05-15T20:04:04.926Z,44.20
2019-05-15T20:07:13.728Z,44.80
2019-05-15T20:10:22.449Z,44.60
2019-05-15T20:13:31.050Z,45.10
2019-05-15T20:16:39.588Z,45.50
2019-05-15T20:19:48.891Z,45.60
2019-05-15T20:23:00.110Z,46.50
2019-05-15T20:26:08.435Z,46.60
2019-05-15T20:29:28.978Z,46.70
2019-05-15T20:32:38.663Z,47.30
2019-05-15T20:35:48.007Z,47.30
2019-05-15T20:38:58.784Z,48.00
2019-05-15T20:42:08.819Z,48.70
2019-05-15T20:45:18.442Z,49.00
2019-05-15T20:48:28.892Z,49.70
2019-05-15T20:51:48.970Z,50.00
2019-05-15T20:54:59.409Z,50.00
2019-05-15T20:58:08.108Z,50.50
2019-05-15T21:01:18.329Z,50.90
2019-05-15T21:04:29.679Z,51.00
2019-05-15T21:07:49.419Z,51.40
2019-05-15T21:10:59.057Z,51.80
2019-05-15T21:14:08.645Z,52.10
2019-05-15T21:17:19.825Z,52.60
2019-05-15T21:20:28.802Z,52.90
2019-05-15T21:23:38.686Z,53.00
2019-05-15T21:26:48.862Z,53.80
2019-05-15T21:29:59.227Z,54.10
2019-05-15T21:33:08.695Z,55.20
2019-05-15T21:36:19.440Z,55.70
2019-05-15T21:39:28.083Z,56.20
2019-05-15T21:42:39.052Z,57.10
2019-05-15T21:45:48.869Z,58.00
2019-05-15T21:49:00.634Z,58.60
2019-05-15T21:52:07.932Z,58.90
2019-05-15T21:55:18.495Z,59.80
2019-05-15T21:58:28.499Z,60.80
2019-05-15T22:01:39.605Z,61.50
2019-05-15T22:04:55.080Z,62.40
2019-05-15T22:07:58.736Z,63.30
2019-05-15T22:11:07.081Z,63.80
2019-05-15T22:14:15.728Z,64.70
2019-05-15T22:17:24.321Z,65.40
2019-05-15T22:20:33.182Z,66.10
2019-05-15T22:23:41.780Z,67.10
2019-05-15T22:26:50.451Z,67.90
2019-05-15T22:29:58.971Z,69.20
2019-05-15T22:33:17.995Z,69.70
2019-05-15T22:36:28.113Z,70.50
2019-05-15T22:39:38.533Z,71.40
2019-05-15T22:42:48.692Z,72.40
2019-05-15T22:45:58.818Z,74.00
2019-05-15T22:49:07.676Z,74.80
2019-05-15T22:52:18.370Z,76.10
2019-05-15T22:55:25.224Z,77.00
2019-05-15T22:58:33.873Z,78.00
2019-05-15T23:01:42.397Z,79.00
2019-05-15T23:05:01.208Z,79.90
2019-05-15T23:08:09.867Z,81.00
2019-05-15T23:11:18.819Z,81.60
2019-05-15T23:14:28.741Z,82.20
2019-05-15T23:17:38.363Z,82.60
2019-05-15T23:20:47.902Z,82.90
2019-05-15T23:23:56.547Z,83.40
2019-05-15T23:27:05.345Z,83.60
2019-05-15T23:30:13.933Z,83.50
2019-05-15T23:33:22.541Z,83.40
2019-05-15T23:36:31.154Z,83.20
2019-05-15T23:39:50.001Z,82.60
2019-05-15T23:43:00.346Z,83.00
2019-05-15T23:46:09.015Z,83.60
2019-05-15T23:49:19.723Z,84.00
2019-05-15T23:52:28.911Z,84.00
2019-05-15T23:55:47.785Z,84.90
2019-05-15T23:58:56.649Z,85.10
